createdAt,value
2018-11-25T00:19:30.686Z,5.79
2018-11-25T00:40:13.713Z,5.67
2018-11-25T01:00:51.138Z,5.57
2018-11-25T01:21:27.620Z,5.63
2018-11-25T01:42:03.525Z,5.56
2018-11-25T02:02:40.536Z,5.53
2018-11-25T02:23:17.141Z,5.51
2018-11-25T02:43:55.382Z,5.58
2018-11-25T03:04:31.576Z,5.59
2018-11-25T03:25:10.637Z,5.62
2018-11-25T03:45:50.107Z,5.68
2018-11-25T04:06:25.078Z,5.70
2018-11-25T04:27:04.561Z,5.76
2018-11-25T04:47:43.599Z,5.80
2018-11-25T05:08:20.216Z,5.76
2018-11-25T05:28:56.403Z,5.78
2018-11-25T05:49:36.629Z,5.76
2018-11-25T06:10:10.837Z,5.78
2018-11-25T06:30:47.849Z,5.82
2018-11-25T06:51:26.093Z,5.78
2018-11-25T07:12:05.564Z,5.76
2018-11-25T07:32:46.676Z,5.84
2018-11-25T07:53:24.918Z,5.91
2018-11-25T08:14:03.158Z,5.97
2018-11-25T08:34:49.599Z,6.01
2018-11-25T08:55:27.015Z,6.13
2018-11-25T09:16:02.387Z,6.17
2018-11-25T09:36:42.271Z,6.25
2018-11-25T09:57:18.936Z,6.37
2018-11-25T10:17:59.730Z,6.52
2018-11-25T10:38:31.263Z,6.63
2018-11-25T10:59:09.505Z,6.79
2018-11-25T11:19:46.519Z,6.84
2018-11-25T11:40:28.406Z,7.04
2018-11-25T12:01:05.056Z,7.11
2018-11-25T12:21:43.708Z,7.26
2018-11-25T12:42:19.907Z,7.31
2018-11-25T13:02:58.143Z,7.40
2018-11-25T13:23:42.962Z,7.49
2018-11-25T13:44:14.829Z,7.53
2018-11-25T14:04:49.595Z,7.60
2018-11-25T14:25:27.234Z,7.52
2018-11-25T14:46:07.514Z,7.64
2018-11-25T15:06:45.771Z,7.65
2018-11-25T15:27:22.974Z,7.64
2018-11-25T15:48:20.479Z,7.58
2018-11-25T16:08:56.713Z,7.51
2018-11-25T16:29:34.905Z,7.44
2018-11-25T16:50:24.474Z,7.43
2018-11-25T17:10:57.534Z,7.48
2018-11-25T17:31:34.545Z,7.48
2018-11-25T17:52:10.740Z,7.49
2018-11-25T18:12:51.031Z,7.44
2018-11-25T18:33:31.322Z,7.43
2018-11-25T18:54:10.867Z,7.49
2018-11-25T19:14:46.984Z,7.44
2018-11-25T19:35:25.229Z,7.37
2018-11-25T19:56:00.193Z,7.32
2018-11-25T20:16:44.579Z,7.22
2018-11-25T20:37:26.876Z,7.18
2018-11-25T20:58:03.119Z,7.16
2018-11-25T21:18:38.698Z,7.07
2018-11-25T21:39:15.921Z,7.11
2018-11-25T21:59:52.921Z,7.10
2018-11-25T22:20:30.350Z,7.08
2018-11-25T22:41:04.494Z,7.04
2018-11-25T23:01:44.785Z,7.01
2018-11-25T23:22:21.177Z,6.87
2018-11-25T23:43:00.452Z,6.75
